Time;durP1;ratioP1;P1;durP2;ratioP2;P2;SDS_P1;SDS_P2;PMS_P1;PMS_P2;Temp;Humidity;BMP_temperature;BMP_pressure;BME280_temperature;BME280_humidity;BME280_pressure;Samples;Min_cycle;Max_cycle;Signal;HPM_P1;HPM_P2
2021/07/03 00:00:55;;;;;;;30.27;24.13;;;14.60;97.40;;;;;;5028952;28;20112;-76
2021/07/03 00:03:20;;;;;;;31.58;22.25;;;14.50;97.30;;;;;;5028269;28;20102;-78
2021/07/03 00:05:46;;;;;;;33.33;24.38;;;14.50;97.40;;;;;;5029052;28;20432;-77
2021/07/03 00:08:11;;;;;;;32.42;21.42;;;14.50;97.40;;;;;;5032747;28;20401;-78
2021/07/03 00:10:37;;;;;;;30.75;23.33;;;14.50;97.40;;;;;;5032478;28;20030;-77
2021/07/03 00:13:02;;;;;;;31.88;22.38;;;14.50;97.50;;;;;;5032665;28;20419;-77
2021/07/03 00:15:28;;;;;;;29.38;22.25;;;14.50;97.60;;;;;;5032700;28;20029;-77
2021/07/03 00:17:55;;;;;;;30.98;22.40;;;14.40;97.60;;;;;;5032907;28;20025;-77
2021/07/03 00:20:22;;;;;;;31.85;21.45;;;14.40;97.60;;;;;;5032060;28;20049;-78
2021/07/03 00:22:48;;;;;;;31.38;21.33;;;14.40;97.60;;;;;;5032780;28;20021;-77
2021/07/03 00:25:14;;;;;;;32.25;22.33;;;14.40;97.50;;;;;;5030728;28;20034;-78
2021/07/03 00:27:41;;;;;;;43.28;23.27;;;14.40;97.50;;;;;;5032398;28;20474;-77
2021/07/03 00:30:08;;;;;;;31.90;21.83;;;14.30;97.60;;;;;;5032522;28;20029;-77
2021/07/03 00:32:34;;;;;;;28.42;20.85;;;14.30;97.60;;;;;;5031244;28;20029;-77
2021/07/03 00:35:00;;;;;;;25.67;21.40;;;14.30;97.80;;;;;;5030720;28;20526;-78
2021/07/03 00:37:25;;;;;;;36.15;22.60;;;14.30;97.60;;;;;;5031691;28;20037;-77
2021/07/03 00:39:51;;;;;;;27.70;21.10;;;14.30;97.70;;;;;;5031981;28;20034;-78
2021/07/03 00:42:16;;;;;;;29.58;22.98;;;14.30;97.70;;;;;;5031802;28;20648;-77
2021/07/03 00:44:42;;;;;;;;;;;14.30;97.70;;;;;;5032407;28;20164;-76
2021/07/03 00:47:09;;;;;;;34.90;24.42;;;14.20;97.70;;;;;;5032138;28;19909;-76
2021/07/03 00:49:37;;;;;;;31.48;21.90;;;14.20;97.70;;;;;;5031775;28;20025;-76
2021/07/03 00:52:05;;;;;;;31.25;22.85;;;14.20;97.90;;;;;;5031771;28;20025;-76
2021/07/03 00:54:36;;;;;;;30.15;21.05;;;14.20;97.80;;;;;;5031507;28;20028;-76
2021/07/03 00:57:03;;;;;;;32.08;20.73;;;14.20;97.80;;;;;;5032064;28;20108;-75
2021/07/03 00:59:41;;;;;;;32.28;23.17;;;14.10;97.80;;;;;;5031646;28;20053;-77
2021/07/03 01:02:09;;;;;;;29.67;21.40;;;14.10;97.80;;;;;;5030473;28;20037;-77
2021/07/03 01:04:35;;;;;;;30.63;21.20;;;14.10;97.80;;;;;;5031414;28;20057;-77
2021/07/03 01:07:01;;;;;;;33.20;22.95;;;14.10;97.80;;;;;;5031540;28;20044;-77
2021/07/03 01:09:27;;;;;;;34.58;22.35;;;14.00;97.80;;;;;;5031649;28;20080;-77
2021/07/03 01:11:53;;;;;;;29.92;22.98;;;14.00;97.90;;;;;;5031669;28;20476;-78
2021/07/03 01:14:19;;;;;;;33.40;22.17;;;14.00;97.90;;;;;;5022073;28;20022;-74
2021/07/03 01:16:45;;;;;;;29.65;20.75;;;13.90;97.90;;;;;;5031607;28;20025;-75
2021/07/03 01:19:11;;;;;;;30.00;20.70;;;13.90;97.90;;;;;;5031716;28;20408;-75
2021/07/03 01:21:38;;;;;;;34.05;24.15;;;13.80;97.80;;;;;;5031183;28;20025;-75
2021/07/03 01:24:04;;;;;;;30.40;21.42;;;13.80;97.90;;;;;;5031519;28;20095;-77
2021/07/03 01:26:42;;;;;;;31.27;22.02;;;13.80;98.10;;;;;;5031431;28;20427;-77
2021/07/03 01:29:08;;;;;;;29.35;22.13;;;13.80;98.10;;;;;;5046251;28;20100;-77
2021/07/03 01:31:33;;;;;;;30.50;21.88;;;13.90;98.20;;;;;;5030990;28;20096;-77
2021/07/03 01:33:59;;;;;;;27.65;20.00;;;13.80;98.30;;;;;;5031232;28;20104;-77
2021/07/03 01:36:24;;;;;;;33.95;21.55;;;13.80;98.20;;;;;;5030671;28;20396;-77
2021/07/03 01:38:50;;;;;;;;;;;13.80;98.10;;;;;;5031850;28;20033;-77
2021/07/03 01:41:15;;;;;;;28.33;20.80;;;13.80;98.10;;;;;;5031287;28;19912;-77
2021/07/03 01:43:41;;;;;;;34.97;23.23;;;13.80;98.10;;;;;;5029781;28;20029;-75
2021/07/03 01:46:06;;;;;;;33.97;23.42;;;13.80;98.10;;;;;;5030668;28;20213;-74
2021/07/03 01:48:32;;;;;;;;;;;13.80;98.10;;;;;;5031588;28;20064;-74
2021/07/03 01:50:59;;;;;;;27.77;17.67;;;13.70;98.10;;;;;;5031090;28;19999;-76
2021/07/03 01:53:26;;;;;;;24.23;18.83;;;13.70;98.10;;;;;;5021076;28;20017;-76
2021/07/03 01:55:52;;;;;;;32.95;20.55;;;13.70;98.10;;;;;;5030630;28;20030;-77
2021/07/03 01:58:20;;;;;;;27.02;20.00;;;13.70;98.20;;;;;;5030212;28;20032;-77
2021/07/03 02:00:47;;;;;;;32.67;22.50;;;13.70;98.20;;;;;;5030411;28;20040;-77
2021/07/03 02:03:12;;;;;;;31.30;20.88;;;13.70;98.20;;;;;;5030437;28;20934;-75
2021/07/03 02:05:38;;;;;;;24.45;19.30;;;13.70;98.20;;;;;;5028536;28;20069;-75
2021/07/03 02:08:04;;;;;;;30.13;21.98;;;13.70;98.20;;;;;;5030652;28;20021;-75
2021/07/03 02:10:30;;;;;;;25.55;19.35;;;13.70;98.20;;;;;;5029270;28;20053;-75
2021/07/03 02:12:55;;;;;;;;;;;13.70;98.30;;;;;;5029544;28;20336;-75
2021/07/03 02:15:21;;;;;;;29.65;21.00;;;13.70;98.30;;;;;;5030466;28;19955;-75
2021/07/03 02:17:47;;;;;;;;;;;13.70;98.30;;;;;;5030709;28;20501;-74
2021/07/03 02:20:12;;;;;;;26.50;18.17;;;13.60;98.30;;;;;;5030494;28;19905;-74
2021/07/03 02:22:38;;;;;;;30.65;20.05;;;13.60;98.20;;;;;;5029934;28;20037;-75
2021/07/03 02:25:04;;;;;;;;;;;13.60;98.20;;;;;;5031065;28;20065;-75
2021/07/03 02:27:29;;;;;;;31.50;21.45;;;13.60;98.20;;;;;;5030017;28;19913;-75
2021/07/03 02:29:55;;;;;;;27.60;19.35;;;13.60;98.30;;;;;;5029809;28;20030;-74
2021/07/03 02:32:21;;;;;;;26.42;19.30;;;13.60;98.20;;;;;;5028663;28;20083;-77
2021/07/03 02:34:46;;;;;;;28.17;19.95;;;13.60;98.20;;;;;;5030415;28;20053;-77
2021/07/03 02:37:11;;;;;;;;;;;13.50;98.20;;;;;;5030135;28;20029;-76
2021/07/03 02:39:37;;;;;;;25.92;19.35;;;13.50;98.20;;;;;;5030294;28;19904;-76
2021/07/03 02:42:03;;;;;;;25.70;18.48;;;13.50;98.30;;;;;;5029912;28;20427;-76
2021/07/03 02:44:28;;;;;;;29.73;19.75;;;13.50;98.30;;;;;;5030037;28;20025;-77
2021/07/03 02:46:54;;;;;;;22.65;18.92;;;13.50;98.30;;;;;;5029522;28;20033;-77
2021/07/03 02:49:21;;;;;;;;;;;13.40;98.30;;;;;;5030339;28;20032;-77
2021/07/03 02:51:47;;;;;;;23.40;17.85;;;13.40;98.30;;;;;;5029395;28;20300;-78
2021/07/03 02:54:13;;;;;;;29.42;19.83;;;13.40;98.30;;;;;;5029800;28;20025;-76
2021/07/03 02:56:38;;;;;;;24.20;18.38;;;13.40;98.30;;;;;;5029433;28;20096;-76
2021/07/03 02:59:03;;;;;;;;;;;13.40;98.30;;;;;;5030168;28;20124;-74
2021/07/03 03:01:29;;;;;;;27.17;18.75;;;13.40;98.30;;;;;;5029479;28;19975;-77
2021/07/03 03:03:55;;;;;;;;;;;13.30;98.20;;;;;;5029972;28;20033;-76
2021/07/03 03:06:20;;;;;;;30.27;19.70;;;13.40;98.30;;;;;;5029624;28;20327;-76
2021/07/03 03:08:46;;;;;;;;;;;13.30;98.20;;;;;;5029963;28;20473;-77
2021/07/03 03:11:11;;;;;;;28.88;20.63;;;13.30;98.30;;;;;;5028226;28;19905;-77
2021/07/03 03:13:37;;;;;;;30.50;21.30;;;13.30;98.20;;;;;;5028328;28;20018;-78
2021/07/03 03:16:02;;;;;;;;;;;13.30;98.20;;;;;;5029954;28;20036;-77
2021/07/03 03:18:28;;;;;;;33.40;20.25;;;13.30;98.20;;;;;;5029324;28;19960;-77
2021/07/03 03:20:53;;;;;;;;;;;13.40;98.20;;;;;;5029933;28;20083;-77
2021/07/03 03:23:19;;;;;;;29.35;17.38;;;13.40;98.20;;;;;;5028671;28;19908;-76
2021/07/03 03:25:44;;;;;;;26.08;18.23;;;13.30;98.30;;;;;;5029482;28;20065;-76
2021/07/03 03:28:10;;;;;;;;;;;13.30;98.30;;;;;;5028290;28;20021;-74
2021/07/03 03:30:35;;;;;;;26.73;17.83;;;13.30;98.30;;;;;;5028089;28;20311;-74
2021/07/03 03:33:01;;;;;;;25.00;18.77;;;13.40;98.30;;;;;;5028804;28;20469;-74
2021/07/03 03:35:26;;;;;;;25.42;17.50;;;13.40;98.30;;;;;;5029067;28;20028;-76
2021/07/03 03:37:52;;;;;;;;;;;13.40;98.30;;;;;;5027933;28;20026;-76
2021/07/03 03:40:17;;;;;;;22.50;15.93;;;13.40;98.30;;;;;;5029100;28;20462;-76
2021/07/03 03:42:43;;;;;;;27.77;18.30;;;13.40;98.20;;;;;;5028575;28;20109;-76
2021/07/03 03:45:09;;;;;;;;;;;13.60;98.20;;;;;;5028736;28;20025;-77
2021/07/03 03:47:34;;;;;;;23.52;16.63;;;13.90;98.00;;;;;;5028788;28;20023;-77
2021/07/03 03:50:00;;;;;;;;;;;14.20;97.80;;;;;;5029522;28;20519;-77
2021/07/03 03:52:25;;;;;;;21.17;16.05;;;14.40;97.50;;;;;;5028344;28;19966;-78
2021/07/03 03:54:51;;;;;;;;;;;14.70;97.10;;;;;;5044413;28;20032;-77
2021/07/03 03:57:29;;;;;;;28.50;17.50;;;14.90;96.80;;;;;;5028799;28;19991;-78
2021/07/03 03:59:56;;;;;;;21.35;15.35;;;15.10;96.30;;;;;;5029000;28;20381;-77
2021/07/03 04:02:22;;;;;;;25.95;15.60;;;15.40;95.80;;;;;;5043101;28;20037;-77
2021/07/03 04:04:50;;;;;;;22.20;15.93;;;15.60;95.60;;;;;;5029075;28;20523;-77
2021/07/03 04:07:15;;;;;;;19.10;15.02;;;15.80;95.00;;;;;;5027325;28;20124;-77
2021/07/03 04:09:41;;;;;;;20.92;15.48;;;15.90;94.90;;;;;;5027414;28;20120;-75
2021/07/03 04:12:07;;;;;;;20.88;15.10;;;16.00;94.50;;;;;;5027307;28;20178;-75
2021/07/03 04:14:32;;;;;;;20.23;15.25;;;16.20;94.30;;;;;;5028552;28;20033;-75
2021/07/03 04:16:58;;;;;;;19.65;14.98;;;16.30;94.00;;;;;;5028816;28;20025;-77
2021/07/03 04:19:23;;;;;;;19.48;14.95;;;16.40;94.00;;;;;;5028311;28;20404;-77
2021/07/03 04:21:49;;;;;;;;;;;16.50;93.90;;;;;;5029143;28;20123;-77
2021/07/03 04:24:14;;;;;;;23.23;14.75;;;16.70;93.70;;;;;;5035637;28;19916;-77
2021/07/03 04:26:40;;;;;;;23.98;16.52;;;16.90;93.50;;;;;;5028792;28;20112;-77
2021/07/03 04:29:06;;;;;;;19.25;15.38;;;17.00;93.10;;;;;;5028142;28;20507;-77
2021/07/03 04:31:31;;;;;;;22.73;14.90;;;16.90;93.10;;;;;;5028354;28;20017;-78
2021/07/03 04:33:57;;;;;;;19.85;16.48;;;16.70;93.20;;;;;;5028212;28;20037;-77
2021/07/03 04:36:22;;;;;;;17.02;14.30;;;16.40;93.50;;;;;;5028602;28;20030;-77
2021/07/03 04:38:48;;;;;;;19.27;15.00;;;16.10;93.70;;;;;;5028458;28;20035;-77
2021/07/03 04:41:13;;;;;;;18.02;14.75;;;15.90;94.10;;;;;;5028609;28;20499;-77
2021/07/03 04:43:39;;;;;;;20.02;15.10;;;15.80;94.30;;;;;;5028030;28;20026;-77
2021/07/03 04:46:04;;;;;;;20.77;16.17;;;15.70;94.50;;;;;;5028530;28;20116;-77
2021/07/03 04:48:30;;;;;;;24.33;17.35;;;15.60;94.80;;;;;;5027242;28;20469;-77
2021/07/03 04:50:56;;;;;;;25.77;17.33;;;15.50;94.90;;;;;;5028623;28;20026;-77
2021/07/03 04:53:21;;;;;;;23.02;17.23;;;15.40;95.00;;;;;;5029896;28;20033;-77
2021/07/03 04:55:47;;;;;;;22.33;16.77;;;15.40;95.20;;;;;;5032304;28;20057;-77
2021/07/03 04:58:12;;;;;;;20.23;15.63;;;15.30;95.30;;;;;;5030187;28;20036;-77
2021/07/03 05:00:38;;;;;;;21.83;15.90;;;15.30;95.40;;;;;;5031582;28;20025;-77
2021/07/03 05:03:04;;;;;;;22.02;15.05;;;15.50;95.40;;;;;;5031651;28;20028;-77
2021/07/03 05:05:29;;;;;;;22.17;15.93;;;16.00;95.30;;;;;;5031479;28;20551;-77
2021/07/03 05:07:55;;;;;;;20.20;14.23;;;16.80;94.80;;;;;;5032026;28;20034;-77
2021/07/03 05:10:20;;;;;;;18.27;14.60;;;17.60;93.80;;;;;;5031343;28;20256;-77
2021/07/03 05:12:46;;;;;;;20.50;13.57;;;18.30;93.20;;;;;;5031738;28;20017;-77
2021/07/03 05:15:11;;;;;;;19.48;14.45;;;19.00;92.10;;;;;;5031213;28;20439;-77
2021/07/03 05:17:37;;;;;;;18.67;13.80;;;19.60;90.60;;;;;;5031703;28;20029;-78
2021/07/03 05:20:04;;;;;;;14.63;13.10;;;20.00;89.70;;;;;;5031500;28;20025;-78
2021/07/03 05:22:30;;;;;;;25.00;14.68;;;20.30;88.10;;;;;;5030962;28;20030;-77
2021/07/03 05:24:55;;;;;;;21.67;15.32;;;20.70;86.40;;;;;;5031567;28;20384;-77
2021/07/03 05:27:21;;;;;;;23.50;13.68;;;21.00;86.20;;;;;;5031289;28;20480;-77
2021/07/03 05:29:47;;;;;;;20.00;13.95;;;21.30;84.10;;;;;;5030112;28;20033;-77
2021/07/03 05:32:13;;;;;;;21.02;13.43;;;21.60;84.00;;;;;;5031120;28;20056;-78
2021/07/03 05:34:38;;;;;;;20.35;13.95;;;21.90;82.60;;;;;;5031097;28;20146;-78
2021/07/03 05:37:04;;;;;;;20.30;13.88;;;22.20;81.30;;;;;;5031273;28;20025;-77
2021/07/03 05:39:30;;;;;;;17.08;14.88;;;22.40;80.70;;;;;;5031014;28;20500;-78
2021/07/03 05:41:55;;;;;;;19.25;14.00;;;22.50;80.00;;;;;;5031167;28;20030;-78
2021/07/03 05:44:23;;;;;;;19.60;14.40;;;22.60;78.70;;;;;;5030693;28;20021;-78
2021/07/03 05:46:49;;;;;;;19.83;12.30;;;22.60;78.30;;;;;;5029267;28;20022;-78
2021/07/03 05:49:16;;;;;;;21.45;14.35;;;22.50;78.20;;;;;;5029969;28;20022;-78
2021/07/03 05:51:42;;;;;;;19.92;13.18;;;22.30;78.50;;;;;;5031124;28;20369;-78
2021/07/03 05:54:08;;;;;;;17.05;12.35;;;22.10;78.90;;;;;;5030750;28;20021;-78
2021/07/03 05:56:34;;;;;;;16.98;13.73;;;22.00;79.00;;;;;;5031068;28;20504;-78
2021/07/03 05:59:01;;;;;;;16.05;13.63;;;21.70;79.80;;;;;;5030901;28;20033;-78
2021/07/03 06:01:27;;;;;;;19.10;13.52;;;21.70;80.10;;;;;;5030297;28;20034;-78
2021/07/03 06:03:52;;;;;;;18.40;11.93;;;21.60;80.50;;;;;;5028879;28;20104;-78
2021/07/03 06:06:18;;;;;;;16.60;13.05;;;21.50;80.50;;;;;;5030397;28;20033;-78
2021/07/03 06:08:44;;;;;;;18.05;12.77;;;21.50;81.10;;;;;;5029950;28;20404;-78
2021/07/03 06:11:10;;;;;;;21.40;13.02;;;21.40;81.00;;;;;;5030138;28;20022;-78
2021/07/03 06:13:35;;;;;;;15.55;13.45;;;21.30;81.80;;;;;;5030338;28;20017;-78
2021/07/03 06:16:02;;;;;;;16.80;11.25;;;21.40;81.70;;;;;;5029920;28;20125;-78
2021/07/03 06:18:27;;;;;;;22.50;12.25;;;21.30;81.60;;;;;;5030579;28;20033;-78
2021/07/03 06:20:53;;;;;;;19.15;12.95;;;21.30;81.60;;;;;;5029947;28;20033;-78
2021/07/03 06:23:19;;;;;;;18.30;13.45;;;21.20;82.30;;;;;;5030150;28;20116;-78
2021/07/03 06:25:44;;;;;;;18.17;12.60;;;21.20;82.40;;;;;;5029459;28;20028;-78
2021/07/03 06:28:10;;;;;;;17.83;12.98;;;21.30;82.50;;;;;;5030332;28;20032;-77
2021/07/03 06:30:36;;;;;;;17.15;12.60;;;21.40;82.30;;;;;;5030020;28;20550;-78
2021/07/03 06:33:01;;;;;;;15.27;11.85;;;21.40;81.80;;;;;;5031023;28;20042;-75
2021/07/03 06:35:27;;;;;;;16.95;11.68;;;21.50;81.90;;;;;;5029653;28;20403;-75
2021/07/03 06:37:52;;;;;;;17.25;12.18;;;21.60;81.80;;;;;;5030231;28;20135;-75
2021/07/03 06:40:18;;;;;;;18.75;11.82;;;21.70;82.00;;;;;;5028613;28;20366;-75
2021/07/03 06:42:43;;;;;;;13.55;10.82;;;21.70;81.40;;;;;;5029939;28;20193;-75
2021/07/03 06:45:09;;;;;;;17.05;12.20;;;21.90;81.40;;;;;;5029496;28;20028;-75
2021/07/03 06:47:35;;;;;;;15.23;12.40;;;21.90;80.60;;;;;;5029905;28;20041;-75
2021/07/03 06:50:01;;;;;;;13.75;11.02;;;22.10;80.80;;;;;;5030141;28;20028;-75
2021/07/03 06:52:26;;;;;;;14.20;12.05;;;22.20;80.50;;;;;;5029605;28;20017;-75
2021/07/03 06:54:52;;;;;;;21.67;12.55;;;22.30;79.80;;;;;;5029897;28;20488;-75
2021/07/03 06:57:17;;;;;;;16.52;11.73;;;22.30;78.50;;;;;;5029161;28;20030;-75
2021/07/03 06:59:43;;;;;;;12.73;10.93;;;22.40;78.10;;;;;;5029795;28;20051;-75
2021/07/03 07:02:08;;;;;;;13.55;10.88;;;22.40;77.80;;;;;;5028854;28;20542;-75
2021/07/03 07:04:34;;;;;;;15.30;11.20;;;22.40;77.10;;;;;;5029796;28;20037;-75
2021/07/03 07:07:00;;;;;;;20.20;13.57;;;22.20;78.20;;;;;;5029212;28;20034;-75
2021/07/03 07:09:26;;;;;;;15.65;11.75;;;22.10;78.20;;;;;;5029475;28;20033;-75
2021/07/03 07:11:53;;;;;;;20.55;15.05;;;22.00;78.20;;;;;;5029209;28;20523;-75
2021/07/03 07:14:18;;;;;;;19.67;13.88;;;21.80;79.20;;;;;;5029054;28;20033;-75
2021/07/03 07:16:44;;;;;;;16.48;12.98;;;21.80;79.50;;;;;;5029314;28;20025;-75
2021/07/03 07:19:09;;;;;;;19.48;12.38;;;21.80;78.50;;;;;;5029471;28;20033;-75
2021/07/03 07:21:35;;;;;;;16.90;11.73;;;21.70;78.90;;;;;;5029021;28;20471;-75
2021/07/03 07:24:02;;;;;;;14.65;10.80;;;21.60;79.30;;;;;;5029314;28;20033;-75
2021/07/03 07:26:28;;;;;;;13.45;11.00;;;21.70;79.50;;;;;;5019793;28;20595;-75
2021/07/03 07:28:54;;;;;;;18.85;11.00;;;21.80;79.70;;;;;;5027765;28;20060;-75
2021/07/03 07:31:20;;;;;;;16.67;11.43;;;21.90;79.70;;;;;;5028700;28;20026;-75
2021/07/03 07:33:46;;;;;;;13.68;11.30;;;22.10;79.50;;;;;;5028980;28;20520;-75
2021/07/03 07:36:12;;;;;;;14.65;10.32;;;22.30;78.20;;;;;;5028906;28;20033;-75
2021/07/03 07:38:38;;;;;;;18.90;11.23;;;22.20;78.30;;;;;;5029094;28;20504;-75
2021/07/03 07:41:04;;;;;;;16.75;11.25;;;22.10;77.90;;;;;;5029060;28;20076;-75
2021/07/03 07:43:29;;;;;;;15.95;11.50;;;22.00;78.50;;;;;;5027608;28;20033;-75
2021/07/03 07:45:57;;;;;;;14.40;11.27;;;21.90;78.80;;;;;;5029175;28;20029;-75
2021/07/03 07:48:26;;;;;;;17.90;10.90;;;22.10;79.40;;;;;;5028634;28;20680;-75
2021/07/03 07:50:53;;;;;;;14.30;10.32;;;22.20;79.90;;;;;;5028695;28;20071;-75
2021/07/03 07:53:18;;;;;;;14.13;10.93;;;22.40;79.50;;;;;;5028525;28;20496;-75
2021/07/03 07:55:44;;;;;;;19.13;11.82;;;22.50;80.00;;;;;;5027791;28;20098;-75
2021/07/03 07:58:09;;;;;;;15.80;10.05;;;22.70;77.80;;;;;;5027089;28;20022;-75
2021/07/03 08:00:35;;;;;;;18.02;12.23;;;22.60;77.80;;;;;;5027525;28;20124;-75
2021/07/03 08:03:01;;;;;;;15.40;11.43;;;22.70;75.70;;;;;;5027491;28;20030;-75
2021/07/03 08:05:26;;;;;;;17.40;10.30;;;22.50;76.50;;;;;;5028399;28;20022;-75
2021/07/03 08:07:52;;;;;;;13.00;10.55;;;22.60;76.70;;;;;;5028935;28;20026;-75
2021/07/03 08:10:18;;;;;;;14.90;10.60;;;22.80;76.60;;;;;;5028193;28;20025;-75
2021/07/03 08:12:44;;;;;;;12.75;10.27;;;23.00;77.40;;;;;;5028632;28;20029;-75
2021/07/03 08:15:11;;;;;;;15.13;9.13;;;23.20;76.70;;;;;;5027733;28;20412;-75
2021/07/03 08:17:42;;;;;;;12.63;9.40;;;23.30;76.20;;;;;;5028286;28;20026;-75
2021/07/03 08:20:17;;;;;;;14.68;10.27;;;23.50;75.50;;;;;;5029116;28;20022;-75
2021/07/03 08:22:44;;;;;;;12.98;10.57;;;23.70;75.40;;;;;;5027106;28;20076;-75
2021/07/03 08:25:10;;;;;;;12.75;9.63;;;23.50;73.90;;;;;;5028567;28;20033;-75
2021/07/03 08:27:35;;;;;;;12.35;8.45;;;23.40;75.10;;;;;;5030926;28;20025;-75
2021/07/03 08:30:01;;;;;;;13.10;9.63;;;23.30;75.00;;;;;;5032960;28;20036;-75
2021/07/03 08:32:26;;;;;;;13.10;7.90;;;23.30;74.20;;;;;;5031896;28;20071;-75
2021/07/03 08:34:52;;;;;;;13.23;10.38;;;23.20;74.40;;;;;;5032466;28;20508;-75
2021/07/03 08:37:17;;;;;;;10.50;8.55;;;22.90;72.90;;;;;;5031314;28;20052;-75
2021/07/03 08:39:44;;;;;;;11.32;8.13;;;22.60;74.80;;;;;;5023383;28;20483;-75
2021/07/03 08:42:09;;;;;;;9.63;8.68;;;22.60;73.70;;;;;;5032073;28;20376;-75
2021/07/03 08:44:35;;;;;;;11.02;8.63;;;22.50;74.50;;;;;;5032758;28;20037;-76
2021/07/03 08:47:02;;;;;;;13.25;8.82;;;22.40;74.20;;;;;;5032511;28;20444;-76
2021/07/03 08:49:27;;;;;;;12.57;9.25;;;22.20;75.00;;;;;;5031260;28;20561;-76
2021/07/03 08:51:54;;;;;;;12.27;10.35;;;22.00;75.80;;;;;;5030988;28;20128;-76
2021/07/03 08:54:20;;;;;;;9.45;8.15;;;21.90;76.60;;;;;;5032257;28;20025;-76
2021/07/03 08:56:47;;;;;;;14.18;9.20;;;21.90;77.30;;;;;;5032702;28;20128;-76
2021/07/03 08:59:16;;;;;;;12.90;8.15;;;22.00;77.10;;;;;;5031651;28;20059;-76
2021/07/03 09:01:52;;;;;;;17.70;9.13;;;22.20;76.60;;;;;;5032004;28;20037;-76
2021/07/03 09:04:18;;;;;;;14.43;8.80;;;22.30;76.70;;;;;;5031747;28;20108;-76
2021/07/03 09:06:43;;;;;;;13.85;8.15;;;22.30;76.20;;;;;;5032176;28;20117;-76
2021/07/03 09:09:09;;;;;;;10.98;7.68;;;22.40;76.60;;;;;;5031196;28;20053;-76
2021/07/03 09:11:34;;;;;;;16.35;7.25;;;22.60;76.30;;;;;;5031999;28;20502;-76
2021/07/03 09:14:07;;;;;;;12.80;7.25;;;22.90;75.60;;;;;;5030895;28;20134;-76
2021/07/03 09:16:35;;;;;;;17.63;8.52;;;23.00;75.70;;;;;;5030815;28;20029;-76
2021/07/03 09:19:02;;;;;;;13.75;8.55;;;23.30;76.00;;;;;;5031710;28;20029;-76
2021/07/03 09:21:28;;;;;;;13.05;7.13;;;23.50;74.90;;;;;;5038418;28;20037;-76
2021/07/03 09:23:54;;;;;;;24.48;9.07;;;23.70;74.10;;;;;;5030299;28;20052;-76
2021/07/03 09:26:19;;;;;;;10.73;7.03;;;23.90;72.50;;;;;;5031718;28;20167;-76
2021/07/03 09:28:47;;;;;;;9.18;6.47;;;23.90;72.20;;;;;;5031813;28;20017;-76
2021/07/03 09:31:15;;;;;;;9.80;8.00;;;23.80;72.50;;;;;;5031656;28;20022;-76
2021/07/03 09:33:46;;;;;;;8.40;6.32;;;23.70;71.20;;;;;;5030770;28;20969;-76
2021/07/03 09:36:13;;;;;;;8.68;7.45;;;23.60;72.40;;;;;;5030284;28;20041;-76
2021/07/03 09:38:46;;;;;;;10.75;7.53;;;23.50;71.60;;;;;;5030889;28;20108;-76
2021/07/03 09:41:13;;;;;;;8.93;7.10;;;23.40;71.60;;;;;;5031447;28;20037;-76
2021/07/03 09:43:52;;;;;;;11.95;8.68;;;23.20;71.40;;;;;;5031069;28;20159;-76
2021/07/03 09:46:35;;;;;;;10.80;7.70;;;23.40;71.80;;;;;;5031380;28;20513;-75
2021/07/03 09:49:09;;;;;;;10.25;8.00;;;23.50;71.30;;;;;;5029466;28;20060;-75
2021/07/03 09:51:41;;;;;;;10.57;7.07;;;23.60;71.70;;;;;;5031337;28;20500;-76
2021/07/03 09:54:09;;;;;;;13.38;7.25;;;23.70;71.80;;;;;;5030452;28;20052;-76
2021/07/03 09:56:36;;;;;;;10.65;7.35;;;23.80;70.90;;;;;;5046129;28;20041;-76
2021/07/03 09:59:02;;;;;;;8.48;7.57;;;23.90;71.10;;;;;;5030958;28;20075;-76
2021/07/03 10:01:27;;;;;;;10.10;8.10;;;24.00;71.80;;;;;;5029841;28;20037;-76
2021/07/03 10:03:53;;;;;;;9.15;6.50;;;24.10;70.40;;;;;;5031034;28;20037;-76
2021/07/03 10:06:29;;;;;;;12.65;6.82;;;24.20;70.50;;;;;;5031064;28;20033;-76
2021/07/03 10:09:06;;;;;;;7.07;6.15;;;24.30;70.30;;;;;;5030268;28;20058;-75
2021/07/03 10:11:40;;;;;;;9.05;6.10;;;24.50;69.90;;;;;;5030874;28;20052;-75
2021/07/03 10:14:06;;;;;;;10.55;6.45;;;24.70;69.00;;;;;;5028657;28;20101;-75
2021/07/03 10:16:33;;;;;;;12.02;6.30;;;24.70;68.10;;;;;;5031114;28;20105;-75
2021/07/03 10:19:16;;;;;;;8.60;5.57;;;24.70;68.70;;;;;;5030695;28;20043;-76
2021/07/03 10:21:44;;;;;;;11.43;6.68;;;24.90;69.70;;;;;;5046141;28;20033;-75
2021/07/03 10:24:21;;;;;;;11.77;8.18;;;24.90;66.30;;;;;;5044727;28;20021;-75
2021/07/03 10:26:47;;;;;;;8.38;6.05;;;24.80;65.90;;;;;;5030460;28;20025;-75
2021/07/03 10:29:21;;;;;;;11.10;6.10;;;24.70;66.90;;;;;;5028741;28;20068;-75
2021/07/03 10:31:49;;;;;;;9.20;5.30;;;24.50;67.50;;;;;;5045837;28;20453;-75
2021/07/03 10:34:14;;;;;;;7.85;5.20;;;24.50;68.50;;;;;;5029832;28;20511;-75
2021/07/03 10:36:40;;;;;;;7.93;6.03;;;24.50;68.40;;;;;;5030071;28;20034;-75
2021/07/03 10:39:06;;;;;;;9.68;6.15;;;24.60;68.50;;;;;;5029991;28;20030;-76
2021/07/03 10:41:33;;;;;;;9.00;7.45;;;24.60;67.10;;;;;;5030075;28;20590;-75
2021/07/03 10:43:59;;;;;;;7.57;6.05;;;24.80;65.80;;;;;;5029642;28;20026;-75
2021/07/03 10:46:32;;;;;;;7.45;6.07;;;24.90;66.30;;;;;;5029026;28;20694;-76
2021/07/03 10:49:15;;;;;;;10.00;6.07;;;25.20;64.90;;;;;;5029323;28;20122;-75
2021/07/03 10:51:41;;;;;;;8.40;5.88;;;25.20;65.50;;;;;;5030007;28;20504;-75
2021/07/03 10:54:07;;;;;;;7.53;5.88;;;25.20;66.00;;;;;;5029537;28;20116;-75
2021/07/03 10:56:46;;;;;;;12.05;5.68;;;25.40;66.00;;;;;;5029146;28;20021;-76
2021/07/03 10:59:15;;;;;;;9.55;6.90;;;25.50;65.90;;;;;;5029932;28;20112;-76
2021/07/03 11:01:41;;;;;;;7.78;5.55;;;25.60;66.10;;;;;;5045086;28;20384;-76
2021/07/03 11:04:22;;;;;;;8.90;5.85;;;25.70;64.80;;;;;;5028885;28;20032;-76
2021/07/03 11:06:53;;;;;;;9.80;5.30;;;25.90;64.30;;;;;;5028698;28;20025;-76
2021/07/03 11:09:29;;;;;;;6.75;5.68;;;26.20;65.50;;;;;;5029879;28;20028;-76
2021/07/03 11:11:58;;;;;;;7.95;5.35;;;26.40;62.10;;;;;;5029575;28;20033;-76
2021/07/03 11:14:27;;;;;;;5.65;4.47;;;26.20;63.00;;;;;;5028319;28;20399;-76
2021/07/03 11:16:57;;;;;;;6.38;5.05;;;26.10;62.90;;;;;;5029504;28;20136;-76
2021/07/03 11:19:27;;;;;;;7.55;4.88;;;25.90;60.20;;;;;;5029691;28;20989;-76
2021/07/03 11:22:05;;;;;;;9.63;6.05;;;25.60;60.20;;;;;;5029567;28;20038;-76
2021/07/03 11:24:46;;;;;;;7.72;5.55;;;25.30;60.80;;;;;;5029610;28;20022;-76
2021/07/03 11:27:24;;;;;;;11.68;4.68;;;25.10;61.90;;;;;;5029340;28;20075;-76
2021/07/03 11:29:50;;;;;;;9.63;4.63;;;25.30;63.70;;;;;;5028901;28;20096;-76
2021/07/03 11:32:15;;;;;;;6.65;4.65;;;25.70;63.10;;;;;;5028687;28;20569;-76
2021/07/03 11:34:53;;;;;;;6.35;4.70;;;25.90;61.80;;;;;;5029658;28;20630;-76
2021/07/03 11:37:37;;;;;;;7.25;4.50;;;25.90;62.00;;;;;;5044448;28;20029;-76
2021/07/03 11:40:08;;;;;;;7.80;4.00;;;25.90;62.50;;;;;;5029179;28;20036;-76
2021/07/03 11:42:36;;;;;;;4.53;4.10;;;26.20;63.10;;;;;;5029639;28;20499;-76
2021/07/03 11:45:09;;;;;;;5.20;4.43;;;26.40;63.00;;;;;;5029086;28;20036;-76
2021/07/03 11:47:43;;;;;;;5.80;4.07;;;26.40;60.60;;;;;;5044774;28;20076;-76
2021/07/03 11:50:20;;;;;;;5.00;4.43;;;26.00;61.20;;;;;;5028619;28;20018;-75
2021/07/03 11:52:50;;;;;;;4.90;4.40;;;25.60;62.20;;;;;;5034155;23;20510;-61
2021/07/03 11:55:28;;;;;;;6.88;5.05;;;25.40;62.70;;;;;;5025944;28;20040;-60
2021/07/03 11:57:55;;;;;;;4.88;4.47;;;25.20;62.90;;;;;;5026898;28;20040;-60
2021/07/03 12:00:23;;;;;;;7.93;4.80;;;25.00;63.40;;;;;;5026135;28;20640;-62
2021/07/03 12:02:49;;;;;;;7.15;5.57;;;24.70;63.00;;;;;;4932406;28;20045;-60
2021/07/03 12:05:19;;;;;;;5.75;5.20;;;24.60;64.00;;;;;;5024529;28;20028;-61
2021/07/03 12:07:55;;;;;;;5.95;4.50;;;24.50;64.70;;;;;;5030462;28;20457;-61
2021/07/03 12:10:21;;;;;;;6.10;4.47;;;24.60;65.60;;;;;;5045109;28;20506;-61
2021/07/03 12:12:52;;;;;;;5.60;4.50;;;24.70;64.50;;;;;;5030367;28;20029;-63
2021/07/03 12:15:18;;;;;;;6.95;4.82;;;25.00;64.50;;;;;;5030147;28;20014;-61
2021/07/03 12:17:49;;;;;;;4.93;4.53;;;25.20;63.10;;;;;;5029958;28;20034;-62
2021/07/03 12:20:17;;;;;;;7.43;5.40;;;25.20;62.50;;;;;;5030202;28;20155;-63
2021/07/03 12:22:57;;;;;;;7.28;5.05;;;25.10;62.50;;;;;;5030007;28;20033;-62
2021/07/03 12:25:24;;;;;;;5.15;4.07;;;25.00;62.80;;;;;;5030191;28;20405;-61
2021/07/03 12:27:51;;;;;;;5.75;4.13;;;24.90;63.00;;;;;;5029940;28;20057;-63
2021/07/03 12:30:19;;;;;;;5.03;4.53;;;24.70;62.50;;;;;;5029527;28;20025;-63
2021/07/03 12:32:45;;;;;;;5.05;4.55;;;24.70;63.70;;;;;;5041051;22;20128;-70
2021/07/03 12:35:14;;;;;;;4.95;4.30;;;24.60;63.90;;;;;;4983659;28;20066;-70
2021/07/03 12:37:40;;;;;;;4.88;3.80;;;24.60;63.70;;;;;;4983329;28;20045;-71